createdAt,value
2023-02-12T00:14:16.917Z,102181.66
2023-02-12T00:44:20.556Z,102219.13
2023-02-12T01:14:24.068Z,102282.48
2023-02-12T01:44:27.358Z,102311.94
2023-02-12T02:14:30.700Z,102328.38
2023-02-12T02:44:33.958Z,102353.67
2023-02-12T03:14:36.890Z,102379.20
2023-02-12T03:44:40.331Z,102428.63
2023-02-12T04:14:43.371Z,102454.63
2023-02-12T04:44:46.963Z,102465.74
2023-02-12T05:14:49.979Z,102501.31
2023-02-12T05:44:53.491Z,102534.28
2023-02-12T06:14:56.474Z,102585.95
2023-02-12T06:44:59.821Z,102636.44
2023-02-12T07:15:03.337Z,102658.05
2023-02-12T07:45:06.543Z,102683.88
2023-02-12T08:15:09.467Z,102696.52
2023-02-12T08:45:12.746Z,102715.98
2023-02-12T09:15:15.744Z,102732.53
2023-02-12T09:45:19.075Z,102762.55
2023-02-12T10:15:22.565Z,102749.63
2023-02-12T10:45:26.031Z,102745.79
2023-02-12T11:15:29.456Z,102748.42
2023-02-12T11:45:33.456Z,102731.46
2023-02-12T12:15:36.401Z,102715.02
2023-02-12T12:45:40.131Z,102696.42
2023-02-12T13:15:43.207Z,102671.55
2023-02-12T13:45:46.481Z,102653.48
2023-02-12T14:15:50.715Z,102669.05
2023-02-12T14:45:53.710Z,102678.16
2023-02-12T15:15:57.789Z,102686.70
2023-02-12T15:46:00.689Z,102678.45
2023-02-12T16:16:04.821Z,102673.09
2023-02-12T16:46:07.765Z,102700.45
2023-02-12T17:16:14.504Z,102710.28
2023-02-12T17:46:21.986Z,102722.30
2023-02-12T18:16:26.805Z,102716.86
2023-02-12T18:46:30.732Z,102707.24
2023-02-12T19:16:36.023Z,102716.97
2023-02-12T19:46:39.398Z,102708.25
2023-02-12T20:16:42.576Z,102693.53
2023-02-12T20:46:46.319Z,102696.88
2023-02-12T21:16:50.334Z,102700.26
2023-02-12T21:46:53.782Z,102695.15
2023-02-12T22:16:56.778Z,102695.15
2023-02-12T22:47:00.190Z,102687.08
2023-02-12T23:17:03.121Z,102693.45
2023-02-12T23:47:06.548Z,102683.20
